Time;durP1;ratioP1;P1;durP2;ratioP2;P2;SDS_P1;SDS_P2;PMS_P1;PMS_P2;Temp;Humidity;BMP_temperature;BMP_pressure;BME280_temperature;BME280_humidity;BME280_pressure;Samples;Min_cycle;Max_cycle;Signal;HPM_P1;HPM_P2
2022/11/18 00:01:12;;;;;;;;;;;9.00;99.90;;;;;;5067594;28;20284;-70
2022/11/18 00:03:38;;;;;;;;;;;9.00;99.90;;;;;;5049591;28;19966;-70
2022/11/18 00:06:05;;;;;;;;;;;9.10;99.90;;;;;;5049575;28;19952;-70
2022/11/18 00:08:30;;;;;;;;;;;9.10;99.90;;;;;;5049150;28;19920;-70
2022/11/18 00:10:56;;;;;;;;;;;9.00;99.90;;;;;;5065294;28;19966;-70
2022/11/18 00:16:07;;;;;;;;;;;8.90;99.90;;;;;;5069195;28;19915;-70
2022/11/18 00:18:33;;;;;;;;;;;8.80;99.90;;;;;;5069057;28;19912;-70
2022/11/18 00:21:06;;;;;;;;;;;8.80;99.90;;;;;;5073501;28;20391;-69
2022/11/18 00:23:32;;;;;;;;;;;;;;;;;;5068956;28;19965;-70
2022/11/18 00:25:58;;;;;;;;;;;;;;;;;;5069030;28;20336;-70
2022/11/18 00:28:23;;;;;;;;;;;;;;;;;;5069015;28;19920;-70
2022/11/18 00:30:49;;;;;;;;;;;8.50;99.90;;;;;;5059973;28;19915;-70
2022/11/18 00:33:14;;;;;;;;;;;8.50;99.90;;;;;;5065603;28;19915;-70
2022/11/18 00:35:40;;;;;;;;;;;8.40;99.90;;;;;;5065489;28;19908;-70
2022/11/18 00:38:05;;;;;;;;;;;8.30;99.90;;;;;;5068656;28;20293;-69
2022/11/18 00:40:31;;;;;;;;;;;;;;;;;;5064928;28;19908;-69
2022/11/18 00:42:56;;;;;;;;;;;8.30;99.90;;;;;;5068834;28;19912;-70
2022/11/18 00:45:22;;;;;;;;;;;8.40;99.90;;;;;;5069280;28;19917;-70
2022/11/18 00:47:48;;;;;;;;;;;;;;;;;;5069232;28;20273;-70
2022/11/18 00:50:13;;;;;;;;;;;8.30;99.90;;;;;;5076082;28;19925;-70
2022/11/18 00:52:39;;;;;;;;;;;;;;;;;;5069262;28;19908;-70
2022/11/18 00:55:05;;;;;;;;;;;8.40;99.90;;;;;;5058706;28;19998;-69
2022/11/18 00:57:30;;;;;;;;;;;8.40;99.90;;;;;;5069123;28;19909;-70
2022/11/18 00:59:56;;;;;;;;;;;8.50;99.90;;;;;;5069764;28;19908;-70
2022/11/18 01:02:21;;;;;;;;;;;8.60;99.90;;;;;;5073014;28;19909;-70
2022/11/18 01:04:47;;;;;;;;;;;8.60;99.90;;;;;;5072303;28;19995;-70
2022/11/18 01:07:12;;;;;;;;;;;8.70;99.90;;;;;;5055067;28;19909;-70
2022/11/18 01:09:37;;;;;;;;;;;8.70;99.90;;;;;;5072650;28;19984;-70
2022/11/18 01:14:48;;;;;;;;;;;8.90;99.90;;;;;;5060026;28;19927;-70
2022/11/18 01:17:13;;;;;;;;;;;;;;;;;;5072308;28;19908;-70
2022/11/18 01:19:39;;;;;;;;;;;8.90;99.90;;;;;;5065040;28;19995;-70
2022/11/18 01:22:05;;;;;;;;;;;;;;;;;;5079463;28;19915;-69
2022/11/18 01:24:31;;;;;;;;;;;;;;;;;;5072195;28;19920;-70
2022/11/18 01:26:57;;;;;;;;;;;;;;;;;;5072823;28;19959;-70
2022/11/18 01:29:22;;;;;;;;;;;8.90;99.90;;;;;;5059460;28;19912;-70
2022/11/18 01:31:48;;;;;;;;;;;;;;;;;;5071934;28;19908;-70
2022/11/18 01:34:14;;;;;;;;;;;8.80;99.90;;;;;;5072572;28;19919;-70
2022/11/18 01:36:39;;;;;;;;;;;8.80;99.90;;;;;;5072208;28;20001;-70
2022/11/18 01:39:05;;;;;;;;;;;;;;;;;;5072702;28;19909;-70
2022/11/18 01:41:31;;;;;;;;;;;;;;;;;;5072013;28;20608;-70
2022/11/18 01:43:57;;;;;;;;;;;;;;;;;;5072604;28;19908;-70
2022/11/18 01:46:23;;;;;;;;;;;8.80;99.90;;;;;;5071775;28;19931;-70
2022/11/18 01:49:09;;;;;;;;;;;8.80;99.90;;;;;;5059203;28;20365;-70
2022/11/18 01:51:37;;;;;;;;;;;8.80;99.90;;;;;;5068123;28;20364;-69
2022/11/18 01:54:05;;;;;;;;;;;8.80;99.90;;;;;;5063332;28;19979;-70
2022/11/18 01:56:39;;;;;;;;;;;8.70;99.90;;;;;;5067983;28;19963;-70
2022/11/18 01:59:05;;;;;;;;;;;;;;;;;;5072559;28;19912;-70
2022/11/18 02:01:30;;;;;;;;;;;8.70;99.90;;;;;;5071008;28;20284;-70
2022/11/18 02:03:56;;;;;;;;;;;8.60;99.90;;;;;;5072273;28;19912;-70
2022/11/18 02:06:21;;;;;;;;;;;8.70;99.90;;;;;;5071843;28;19943;-70
2022/11/18 02:08:47;;;;;;;;;;;8.60;99.90;;;;;;5071834;28;19912;-70
2022/11/18 02:13:58;;;;;;;;;;;8.70;99.90;;;;;;5072112;28;20388;-71
2022/11/18 02:16:24;;;;;;;;;;;;;;;;;;5071116;28;19908;-70
2022/11/18 02:18:49;;;;;;;;;;;8.70;99.90;;;;;;5072239;28;19916;-70
2022/11/18 02:21:15;;;;;;;;;;;;;;;;;;5071931;28;19980;-70
2022/11/18 02:23:59;;;;;;;;;;;8.70;99.90;;;;;;5071530;28;19995;-69
2022/11/18 02:26:31;;;;;;;;;;;8.70;99.90;;;;;;5060151;28;19927;-70
2022/11/18 02:29:16;;;;;;;;;;;8.80;99.90;;;;;;5071574;28;19920;-70
2022/11/18 02:31:46;;;;;;;;;;;8.90;99.90;;;;;;5071172;28;19943;-70
2022/11/18 02:34:15;;;;;;;;;;;8.90;99.90;;;;;;5071180;28;19908;-70
2022/11/18 02:36:51;;;;;;;;;;;8.80;99.90;;;;;;5071348;28;19962;-70
2022/11/18 02:39:19;;;;;;;;;;;8.90;99.90;;;;;;5059224;28;20272;-70
2022/11/18 02:41:45;;;;;;;;;;;;;;;;;;5070929;28;19927;-70
2022/11/18 02:44:13;;;;;;;;;;;9.00;99.90;;;;;;5070908;28;20007;-70
2022/11/18 02:46:39;;;;;;;;;;;9.00;99.90;;;;;;5070930;28;19912;-70
2022/11/18 02:49:05;;;;;;;;;;;;;;;;;;5073761;28;19916;-69
2022/11/18 02:51:32;;;;;;;;;;;9.00;99.90;;;;;;5075737;28;19920;-70
2022/11/18 02:53:59;;;;;;;;;;;9.00;99.90;;;;;;5062726;28;19909;-70
2022/11/18 02:56:26;;;;;;;;;;;9.00;99.90;;;;;;5066261;28;19920;-70
2022/11/18 02:58:51;;;;;;;;;;;9.10;99.90;;;;;;5070680;28;19913;-70
2022/11/18 03:01:21;;;;;;;;;;;9.10;99.90;;;;;;5071676;28;19908;-70
2022/11/18 03:03:47;;;;;;;;;;;9.10;99.90;;;;;;5070678;28;20336;-70
2022/11/18 03:06:13;;;;;;;;;;;;;;;;;;5070430;28;19908;-70
2022/11/18 03:08:41;;;;;;;;;;;9.20;99.90;;;;;;5071656;28;19913;-70
2022/11/18 03:11:07;;;;;;;;;;;;;;;;;;5070624;28;20012;-70
2022/11/18 03:13:40;;;;;;;;;;;9.10;99.90;;;;;;5070200;28;20050;-69
2022/11/18 03:16:06;;;;;;;;;;;;;;;;;;5070778;28;19916;-70
2022/11/18 03:18:38;;;;;;;;;;;9.20;99.90;;;;;;5070393;28;19954;-70
2022/11/18 03:21:07;;;;;;;;;;;9.20;99.90;;;;;;5070634;28;20318;-70
2022/11/18 03:23:32;;;;;;;;;;;;;;;;;;5069939;28;19982;-70
2022/11/18 03:25:58;;;;;;;;;;;;;;;;;;5070041;28;19928;-70
2022/11/18 03:28:27;;;;;;;;;;;9.20;99.90;;;;;;5069788;28;19916;-70
2022/11/18 03:30:53;;;;;;;;;;;;;;;;;;5070423;28;19946;-70
2022/11/18 03:33:21;;;;;;;;;;;9.30;99.90;;;;;;5069352;28;19936;-70
2022/11/18 03:35:47;;;;;;;;;;;;;;;;;;5068081;28;20425;-70
2022/11/18 03:38:13;;;;;;;;;;;;;;;;;;5068870;28;19919;-69
2022/11/18 03:40:39;;;;;;;;;;;;;;;;;;5073149;28;19912;-70
2022/11/18 03:43:04;;;;;;;;;;;;;;;;;;5067968;28;20464;-70
2022/11/18 03:45:30;;;;;;;;;;;;;;;;;;5067820;28;19916;-70
2022/11/18 03:47:56;;;;;;;;;;;;;;;;;;5068079;28;19934;-70
2022/11/18 03:50:32;;;;;;;;;;;9.30;99.90;;;;;;5068466;28;19920;-70
2022/11/18 03:52:58;;;;;;;;;;;9.30;99.90;;;;;;5070135;28;19909;-70
2022/11/18 03:55:26;;;;;;;;;;;9.20;99.90;;;;;;5081478;28;19908;-70
2022/11/18 03:57:51;;;;;;;;;;;9.20;99.90;;;;;;5069364;28;20435;-70
2022/11/18 04:00:19;;;;;;;;;;;9.20;99.90;;;;;;5069795;28;19944;-70
2022/11/18 04:02:46;;;;;;;;;;;9.10;99.90;;;;;;5069597;28;20158;-71
2022/11/18 04:05:12;;;;;;;;;;;;;;;;;;5069947;28;20002;-70
2022/11/18 04:07:38;;;;;;;;;;;;;;;;;;5070474;28;20000;-70
2022/11/18 04:10:15;;;;;;;;;;;9.10;99.90;;;;;;5070045;28;19920;-69
2022/11/18 04:13:07;;;;;;;;;;;9.20;99.90;;;;;;5069163;28;19916;-70
2022/11/18 04:15:33;;;;;;;;;;;;;;;;;;5066674;28;20061;-70
2022/11/18 04:17:58;;;;;;;;;;;9.20;99.90;;;;;;5069729;28;20397;-70
2022/11/18 04:20:24;;;;;;;;;;;9.20;99.90;;;;;;5069780;28;19919;-70
2022/11/18 04:22:50;;;;;;;;;;;9.20;99.90;;;;;;5069511;28;20030;-70
2022/11/18 04:25:15;;;;;;;;;;;9.20;99.90;;;;;;5069543;28;19921;-70
2022/11/18 04:27:41;;;;;;;;;;;;;;;;;;5068929;28;19920;-70
2022/11/18 04:30:07;;;;;;;;;;;;;;;;;;5069793;28;19908;-70
2022/11/18 04:32:33;;;;;;;;;;;;;;;;;;5069536;28;19995;-70
2022/11/18 04:34:59;;;;;;;;;;;;;;;;;;5070172;28;19940;-70
2022/11/18 04:37:24;;;;;;;;;;;;;;;;;;5084492;28;20361;-70
2022/11/18 04:39:50;;;;;;;;;;;9.20;99.90;;;;;;5073662;28;20016;-69
2022/11/18 04:42:16;;;;;;;;;;;;;;;;;;5072811;28;20403;-70
2022/11/18 04:44:41;;;;;;;;;;;9.20;99.90;;;;;;5073624;28;19908;-70
2022/11/18 04:47:07;;;;;;;;;;;9.20;99.90;;;;;;5072894;28;20019;-70
2022/11/18 04:49:33;;;;;;;;;;;9.20;99.90;;;;;;5073404;28;19919;-70
2022/11/18 04:51:59;;;;;;;;;;;9.10;99.90;;;;;;5072651;28;19980;-70
2022/11/18 04:54:25;;;;;;;;;;;9.10;99.90;;;;;;5073485;28;20057;-70
2022/11/18 04:56:51;;;;;;;;;;;;;;;;;;5070930;28;19917;-70
2022/11/18 04:59:17;;;;;;;;;;;;;;;;;;5072753;28;19920;-70
2022/11/18 05:01:43;;;;;;;;;;;;;;;;;;5072914;28;20245;-70
2022/11/18 05:04:12;;;;;;;;;;;8.90;99.90;;;;;;5072936;28;20015;-70
2022/11/18 05:06:38;;;;;;;;;;;;;;;;;;5075022;28;19935;-70
2022/11/18 05:09:04;;;;;;;;;;;8.80;99.90;;;;;;5072395;28;20353;-70
2022/11/18 05:14:14;;;;;;;;;;;8.80;99.90;;;;;;5072590;28;20066;-70
2022/11/18 05:16:40;;;;;;;;;;;;;;;;;;5070791;28;19948;-70
2022/11/18 05:19:05;;;;;;;;;;;8.90;99.90;;;;;;5072991;28;19920;-70
2022/11/18 05:21:31;;;;;;;;;;;;;;;;;;5072490;28;19970;-70
2022/11/18 05:24:00;;;;;;;;;;;8.90;99.90;;;;;;5072122;28;19927;-70
2022/11/18 05:26:26;;;;;;;;;;;;;;;;;;5072542;28;19909;-70
2022/11/18 05:28:51;;;;;;;;;;;9.00;99.90;;;;;;5072558;28;19969;-70
2022/11/18 05:31:17;;;;;;;;;;;9.00;99.90;;;;;;5072758;28;19908;-70
2022/11/18 05:33:42;;;;;;;;;;;;;;;;;;5072325;28;20318;-70
2022/11/18 05:36:09;;;;;;;;;;;9.00;99.90;;;;;;5080978;28;19976;-70
2022/11/18 05:38:35;;;;;;;;;;;8.90;99.90;;;;;;5074051;28;20057;-70
2022/11/18 05:41:01;;;;;;;;;;;8.90;99.90;;;;;;5072675;28;19908;-70
2022/11/18 05:43:27;;;;;;;;;;;8.90;99.90;;;;;;5072122;28;19916;-70
2022/11/18 05:45:52;;;;;;;;;;;8.90;99.90;;;;;;5072103;28;19909;-70
2022/11/18 05:48:18;;;;;;;;;;;9.00;99.90;;;;;;5070330;28;20380;-70
2022/11/18 05:50:48;;;;;;;;;;;8.90;99.90;;;;;;5072295;28;19991;-70
2022/11/18 05:53:14;;;;;;;;;;;8.90;99.90;;;;;;5069195;28;19909;-70
2022/11/18 05:55:40;;;;;;;;;;;;;;;;;;5061546;28;19908;-70
2022/11/18 05:58:05;;;;;;;;;;;8.80;99.90;;;;;;5072139;28;20462;-70
2022/11/18 06:00:31;;;;;;;;;;;8.70;99.90;;;;;;5071838;28;19916;-70
2022/11/18 06:02:57;;;;;;;;;;;8.70;99.90;;;;;;5072195;28;20057;-70
2022/11/18 06:05:23;;;;;;;;;;;8.60;99.90;;;;;;5073758;28;19909;-70
2022/11/18 06:07:48;;;;;;;;;;;8.60;99.90;;;;;;5075425;28;20089;-70
2022/11/18 06:10:18;;;;;;;;;;;8.50;99.90;;;;;;5072052;28;20004;-70
2022/11/18 06:12:46;;;;;;;;;;;8.50;99.90;;;;;;5071718;28;19908;-70
2022/11/18 06:15:14;;;;;;;;;;;8.40;99.90;;;;;;5071830;28;19919;-70
2022/11/18 06:17:40;;;;;;;;;;;;;;;;;;5071637;28;19913;-70
2022/11/18 06:20:06;;;;;;;;;;;8.20;99.90;;;;;;5071822;28;19954;-70
2022/11/18 06:22:32;;;;;;;;;;;;;;;;;;5071019;28;19962;-69
2022/11/18 06:24:58;;;;;;;;;;;8.10;99.90;;;;;;5071604;28;20339;-69
2022/11/18 06:27:24;;;;;;;;;;;;;;;;;;5071447;28;19913;-69
2022/11/18 06:29:50;;;;;;;;;;;7.80;99.90;;;;;;5071515;28;19915;-69
2022/11/18 06:32:16;;;;;;;;;;;;;;;;;;5071356;28;19916;-70
2022/11/18 06:34:41;;;;;;;;;;;7.90;99.90;;;;;;5071344;28;19908;-70
2022/11/18 06:37:07;;;;;;;;;;;;;;;;;;5071554;28;19913;-70
2022/11/18 06:39:32;;;;;;;;;;;7.90;99.90;;;;;;5060341;28;20014;-70
2022/11/18 06:41:58;;;;;;;;;;;7.90;99.90;;;;;;5069155;28;19966;-70
2022/11/18 06:44:24;;;;;;;;;;;;;;;;;;5071246;28;19916;-70
2022/11/18 06:46:56;;;;;;;;;;;;;;;;;;5070986;28;20614;-70
2022/11/18 06:49:22;;;;;;;;;;;;;;;;;;5070943;28;20315;-70
2022/11/18 06:51:47;;;;;;;;;;;7.70;99.90;;;;;;5070655;28;19915;-69
2022/11/18 06:54:13;;;;;;;;;;;;;;;;;;5060301;28;19909;-70
2022/11/18 06:56:39;;;;;;;;;;;7.70;99.90;;;;;;5068152;28;19908;-70
2022/11/18 06:59:04;;;;;;;;;;;;;;;;;;5052309;28;19920;-70
2022/11/18 07:01:31;;;;;;;;;;;7.60;99.90;;;;;;5065755;28;19955;-69
2022/11/18 07:03:57;;;;;;;;;;;;;;;;;;5052201;28;19999;-69
2022/11/18 07:06:24;;;;;;;;;;;7.50;99.90;;;;;;5066493;28;20413;-69
2022/11/18 07:08:50;;;;;;;;;;;;;;;;;;5051556;28;19912;-69
2022/11/18 07:11:16;;;;;;;;;;;7.50;99.90;;;;;;5053840;28;19963;-69
2022/11/18 07:13:42;;;;;;;;;;;7.50;99.90;;;;;;5068509;28;20349;-69
2022/11/18 07:16:09;;;;;;;;;;;7.50;99.90;;;;;;5052809;28;19920;-69
2022/11/18 07:18:36;;;;;;;;;;;;;;;;;;5054014;28;20079;-69
2022/11/18 07:21:02;;;;;;;;;;;;;;;;;;5058412;28;20259;-69
2022/11/18 07:23:29;;;;;;;;;;;7.50;99.90;;;;;;5070167;28;20022;-69
2022/11/18 07:25:54;;;;;;;;;;;;;;;;;;5069886;28;19936;-69
2022/11/18 07:28:20;;;;;;;;;;;7.40;99.90;;;;;;5070237;28;19939;-69
2022/11/18 07:30:46;;;;;;;;;;;;;;;;;;5066700;28;19920;-70
2022/11/18 07:33:11;;;;;;;;;;;7.50;99.90;;;;;;5069630;28;19940;-68
2022/11/18 07:35:37;;;;;;;;;;;7.50;99.90;;;;;;5069319;28;19915;-68
2022/11/18 07:38:02;;;;;;;;;;;7.60;99.90;;;;;;5069853;28;20369;-68
2022/11/18 07:40:28;;;;;;;;;;;7.50;99.90;;;;;;5069768;28;19908;-68
2022/11/18 07:42:53;;;;;;;;;;;;;;;;;;5074285;28;20391;-68
2022/11/18 07:45:19;;;;;;;;;;;7.60;99.90;;;;;;5069445;28;19923;-68
2022/11/18 07:47:44;;;;;;;;;;;7.60;99.90;;;;;;5069904;28;20524;-68
2022/11/18 07:50:10;;;;;;;;;;;;;;;;;;5056895;28;20013;-68
2022/11/18 07:52:36;;;;;;;;;;;7.60;99.90;;;;;;5052155;28;19916;-69
2022/11/18 07:55:02;;;;;;;;;;;;;;;;;;5060006;28;19915;-68
2022/11/18 07:57:27;;;;;;;;;;;7.70;99.90;;;;;;5058481;28;19920;-68
2022/11/18 07:59:53;;;;;;;;;;;;;;;;;;5067253;28;19935;-68
2022/11/18 08:02:18;;;;;;;;;;;7.70;99.90;;;;;;5057944;28;20331;-68
2022/11/18 08:04:44;;;;;;;;;;;7.80;99.90;;;;;;5059948;28;20356;-68
2022/11/18 08:07:10;;;;;;;;;;;;;;;;;;5061665;28;20285;-68
2022/11/18 08:09:35;;;;;;;;;;;7.90;99.90;;;;;;5070741;28;19924;-68
2022/11/18 08:12:00;;;;;;;;;;;7.90;99.90;;;;;;5066436;28;20016;-68
2022/11/18 08:14:27;;;;;;;;;;;8.00;99.90;;;;;;5066839;28;19919;-68
2022/11/18 08:16:53;;;;;;;;;;;;;;;;;;5069036;28;19915;-69
2022/11/18 08:19:19;;;;;;;;;;;8.00;99.90;;;;;;5056575;28;20357;-68
2022/11/18 08:21:44;;;;;;;;;;;8.00;99.90;;;;;;5069445;28;19918;-68
2022/11/18 08:24:10;;;;;;;;;;;;;;;;;;5068753;28;20361;-68
2022/11/18 08:26:35;;;;;;;;;;;8.00;99.90;;;;;;5074722;28;19912;-68
2022/11/18 08:29:01;;;;;;;;;;;;;;;;;;5068226;28;19956;-68
2022/11/18 08:31:27;;;;;;;;;;;;;;;;;;5069114;28;19912;-68
2022/11/18 08:33:53;;;;;;;;;;;;;;;;;;5068232;28;19999;-68
2022/11/18 08:36:20;;;;;;;;;;;8.20;99.90;;;;;;5068108;28;19971;-68
2022/11/18 08:38:46;;;;;;;;;;;8.20;99.90;;;;;;5069351;28;19912;-68
2022/11/18 08:41:12;;;;;;;;;;;;;;;;;;5068444;28;19922;-68
2022/11/18 08:43:37;;;;;;;;;;;8.10;99.90;;;;;;5069242;28;19909;-68
2022/11/18 08:46:03;;;;;;;;;;;8.10;99.90;;;;;;5069050;28;19915;-68
2022/11/18 08:48:28;;;;;;;;;;;;;;;;;;5068413;28;19919;-68
2022/11/18 08:50:54;;;;;;;;;;;8.20;99.90;;;;;;5068885;28;19913;-68
2022/11/18 08:53:20;;;;;;;;;;;;;;;;;;5065626;28;19909;-68
2022/11/18 08:55:45;;;;;;;;;;;8.20;99.90;;;;;;5059251;28;20398;-68
2022/11/18 08:58:11;;;;;;;;;;;8.20;99.90;;;;;;5069685;28;19912;-68
2022/11/18 09:00:37;;;;;;;;;;;;;;;;;;5069301;28;19912;-68
2022/11/18 09:03:03;;;;;;;;;;;8.30;99.90;;;;;;5068141;28;19909;-68
2022/11/18 09:05:28;;;;;;;;;;;8.40;99.90;;;;;;5068744;28;19962;-68
2022/11/18 09:07:54;;;;;;;;;;;;;;;;;;5068567;28;19916;-68
2022/11/18 09:10:20;;;;;;;;;;;;;;;;;;5068558;28;20015;-68
2022/11/18 09:12:45;;;;;;;;;;;8.60;99.90;;;;;;5069152;28;19909;-67
2022/11/18 09:15:11;;;;;;;;;;;8.60;99.90;;;;;;5068286;28;19956;-68
2022/11/18 09:17:36;;;;;;;;;;;8.70;99.90;;;;;;5068684;28;19915;-68
2022/11/18 09:20:02;;;;;;;;;;;8.80;99.90;;;;;;5068766;28;19908;-69
2022/11/18 09:22:28;;;;;;;;;;;;;;;;;;5071295;28;19966;-68
2022/11/18 09:24:53;;;;;;;;;;;;;;;;;;5071869;28;20003;-68
2022/11/18 09:27:19;;;;;;;;;;;;;;;;;;5072195;28;19909;-68
2022/11/18 09:29:45;;;;;;;;;;;8.90;99.90;;;;;;5073169;28;19963;-68
2022/11/18 09:32:10;;;;;;;;;;;8.90;99.90;;;;;;5073512;28;20307;-68
2022/11/18 09:34:36;;;;;;;;;;;9.00;99.90;;;;;;5072637;28;19912;-68
2022/11/18 09:37:04;;;;;;;;;;;9.10;99.90;;;;;;5069072;28;19913;-68
2022/11/18 09:39:30;;;;;;;;;;;;;;;;;;5054540;28;20399;-68
2022/11/18 09:42:05;;;;;;;;;;;9.10;99.90;;;;;;5072205;28;19947;-69
2022/11/18 09:44:50;;;;;;;;;;;9.20;99.90;;;;;;5064316;28;20089;-68
2022/11/18 09:47:15;;;;;;;;;;;;;;;;;;5068195;28;20439;-67
2022/11/18 09:49:41;;;;;;;;;;;;;;;;;;5072381;28;20001;-68
2022/11/18 09:52:15;;;;;;;;;;;9.20;99.90;;;;;;5071734;28;20389;-68
2022/11/18 09:54:40;;;;;;;;;;;9.30;99.90;;;;;;5040517;28;19928;-68
2022/11/18 09:57:06;;;;;;;;;;;;;;;;;;5071895;28;20392;-67
2022/11/18 09:59:32;;;;;;;;;;;9.30;99.90;;;;;;5071383;28;20009;-67
2022/11/18 10:02:06;;;;;;;;;;;9.40;99.90;;;;;;5071844;28;19913;-67
2022/11/18 10:04:32;;;;;;;;;;;;;;;;;;5072787;28;19913;-67
2022/11/18 10:06:57;;;;;;;;;;;9.30;99.90;;;;;;5071933;28;19914;-67
2022/11/18 10:09:23;;;;;;;;;;;;;;;;;;5071463;28;19921;-67
2022/11/18 10:11:55;;;;;;;;;;;9.40;99.90;;;;;;5076290;28;20346;-68
2022/11/18 10:14:26;;;;;;;;;;;9.40;99.90;;;;;;5074258;28;20056;-67
2022/11/18 10:16:59;;;;;;;;;;;9.40;99.90;;;;;;5071739;28;19908;-67
2022/11/18 10:19:25;;;;;;;;;;;;;;;;;;5070938;28;19913;-67
2022/11/18 10:22:15;;;;;;;;;;;9.50;99.90;;;;;;5071454;28;19962;-68
2022/11/18 10:24:41;;;;;;;;;;;;;;;;;;5059876;28;19947;-67
2022/11/18 10:27:13;;;;;;;;;;;9.60;99.90;;;;;;5071077;28;19908;-68
2022/11/18 10:29:39;;;;;;;;;;;9.60;99.90;;;;;;5059671;28;20373;-67
2022/11/18 10:32:05;;;;;;;;;;;;;;;;;;5070720;28;19919;-68
2022/11/18 10:34:34;;;;;;;;;;;9.60;99.90;;;;;;5073638;28;20399;-68
2022/11/18 10:37:00;;;;;;;;;;;9.60;99.90;;;;;;5070868;28;19978;-67
2022/11/18 10:39:26;;;;;;;;;;;9.60;99.90;;;;;;5071278;28;19915;-67
2022/11/18 10:41:54;;;;;;;;;;;9.50;99.90;;;;;;5086622;28;20315;-68
2022/11/18 10:44:20;;;;;;;;;;;;;;;;;;5070555;28;19914;-68
2022/11/18 10:46:46;;;;;;;;;;;9.60;99.90;;;;;;5070913;28;20000;-68
2022/11/18 10:49:12;;;;;;;;;;;;;;;;;;5070720;28;19912;-68
2022/11/18 10:51:48;;;;;;;;;;;9.60;99.90;;;;;;5070766;28;19912;-68
2022/11/18 10:54:15;;;;;;;;;;;9.60;99.90;;;;;;5060146;28;19966;-68
2022/11/18 10:56:41;;;;;;;;;;;;;;;;;;5068198;28;19947;-68
2022/11/18 10:59:07;;;;;;;;;;;;;;;;;;5069479;28;19913;-68
2022/11/18 11:01:33;;;;;;;;;;;9.70;99.90;;;;;;5071455;28;19912;-67
2022/11/18 11:04:00;;;;;;;;;;;9.70;99.90;;;;;;5071781;28;19920;-68
2022/11/18 11:06:28;;;;;;;;;;;;;;;;;;5070253;28;19909;-69
2022/11/18 11:08:53;;;;;;;;;;;;;;;;;;5070465;28;20368;-68
2022/11/18 11:11:32;;;;;;;;;;;10.00;99.90;;;;;;5069944;28;20165;-68
2022/11/18 11:14:19;;;;;;;;;;;10.20;99.90;;;;;;5064652;28;20242;-68
2022/11/18 11:16:51;;;;;;;;;;;10.30;99.90;;;;;;5070578;28;19912;-69
2022/11/18 11:19:17;;;;;;;;;;;;;;;;;;5069911;28;19965;-68
2022/11/18 11:21:42;;;;;;;;;;;10.50;99.90;;;;;;5070341;28;20015;-68
2022/11/18 11:24:08;;;;;;;;;;;;;;;;;;5069729;28;19920;-68
2022/11/18 11:26:40;;;;;;;;;;;10.60;99.90;;;;;;5069563;28;19912;-68
2022/11/18 11:29:06;;;;;;;;;;;;;;;;;;5069944;28;19952;-68
2022/11/18 11:31:33;;;;;;;;;;;;;;;;;;5061612;28;20284;-68
2022/11/18 11:34:10;;;;;;;;;;;10.80;99.90;;;;;;5069730;28;19955;-68
2022/11/18 11:36:36;;;;;;;;;;;;;;;;;;5062811;28;20342;-68
2022/11/18 11:39:20;;;;;;;;;;;10.90;99.90;;;;;;5069853;28;19915;-68
2022/11/18 11:41:52;;;;;;;;;;;10.90;99.90;;;;;;5069268;28;19908;-68
2022/11/18 11:44:18;;;;;;;;;;;;;;;;;;5068759;28;19915;-68
2022/11/18 11:46:44;;;;;;;;;;;;;;;;;;5069396;28;19909;-68
2022/11/18 11:49:30;;;;;;;;;;;10.80;99.90;;;;;;5069112;28;19969;-68
2022/11/18 11:51:57;;;;;;;;;;;10.70;99.90;;;;;;5069017;28;20315;-68
2022/11/18 11:54:23;;;;;;;;;;;;;;;;;;5057732;28;19916;-68
2022/11/18 11:56:52;;;;;;;;;;;10.70;99.90;;;;;;5067584;28;19913;-68
2022/11/18 11:59:20;;;;;;;;;;;10.70;99.90;;;;;;5069117;28;19912;-68
2022/11/18 12:01:51;;;;;;;;;;;10.80;99.90;;;;;;5068734;28;19913;-68
2022/11/18 12:04:17;;;;;;;;;;;;;;;;;;5069255;28;20298;-68
2022/11/18 12:06:48;;;;;;;;;;;10.90;99.90;;;;;;5069681;28;19927;-68
2022/11/18 12:09:25;;;;;;;;;;;11.00;99.90;;;;;;5071211;28;20303;-68
2022/11/18 12:11:56;;;;;;;;;;;11.00;99.90;;;;;;5082070;28;20385;-68
2022/11/18 12:14:24;;;;;;;;;;;11.00;99.90;;;;;;5068865;28;19908;-68
2022/11/18 12:17:10;;;;;;;;;;;11.10;99.90;;;;;;5079671;28;19912;-68
2022/11/18 12:19:39;;;;;;;;;;;11.10;99.90;;;;;;5069234;28;19920;-68
2022/11/18 12:22:05;;;;;;;;;;;;;;;;;;5069435;28;19919;-68
2022/11/18 12:24:38;;;;;;;;;;;11.30;99.90;;;;;;5068740;28;19978;-68
2022/11/18 12:27:12;;;;;;;;;;;11.40;99.90;;;;;;5049035;28;19912;-68
2022/11/18 12:29:49;;;;;;;;;;;11.50;99.90;;;;;;5059411;28;20448;-68
2022/11/18 12:32:15;;;;;;;;;;;;;;;;;;5072609;28;19913;-68
2022/11/18 12:34:41;;;;;;;;;;;;;;;;;;5067905;28;19966;-68
2022/11/18 12:37:22;;;;;;;;;;;11.60;99.90;;;;;;5059235;28;19909;-68
2022/11/18 12:39:58;;;;;;;;;;;11.60;99.90;;;;;;5068895;28;19919;-68
2022/11/18 12:45:38;;;;;;;;;;;11.60;99.90;;;;;;5078274;28;19954;-68
2022/11/18 12:48:04;;;;;;;;;;;;;;;;;;5072346;28;19921;-69
2022/11/18 12:50:49;;;;;;;;;;;11.70;99.90;;;;;;5068972;28;19912;-68
2022/11/18 12:53:29;;;;;;;;;;;11.70;99.90;;;;;;5065960;28;19916;-68
2022/11/18 12:55:56;;;;;;;;;;;11.70;99.90;;;;;;5060807;28;20258;-68
2022/11/18 12:58:22;;;;;;;;;;;11.70;99.90;;;;;;5072740;28;20361;-68
2022/11/18 13:00:51;;;;;;;;;;;;;;;;;;5073153;28;19935;-68
2022/11/18 13:03:21;;;;;;;;;;;11.60;99.90;;;;;;5082190;28;19962;-68
2022/11/18 13:05:46;;;;;;;;;;;11.50;99.90;;;;;;5072800;28;20377;-68
2022/11/18 13:08:12;;;;;;;;;;;11.50;99.90;;;;;;5087420;28;19970;-68
2022/11/18 13:10:50;;;;;;;;;;;11.40;99.90;;;;;;5072759;28;19938;-68
2022/11/18 13:13:16;;;;;;;;;;;;;;;;;;5072496;28;20045;-68
2022/11/18 13:18:26;;;;;;;;;;;11.40;99.90;;;;;;5062342;28;19958;-68
2022/11/18 13:20:56;;;;;;;;;;;11.40;99.90;;;;;;5072709;28;19970;-68
2022/11/18 13:26:13;;;;;;;;;;;;;;;;;;5072619;28;19978;-68
2022/11/18 13:28:51;;;;;;;;;;;11.50;99.90;;;;;;5087942;28;19956;-68
2022/11/18 13:31:16;;;;;;;;;;;;;;;;;;5071290;28;20357;-68
2022/11/18 13:33:42;;;;;;;;;;;11.50;99.90;;;;;;5072684;28;20008;-68
2022/11/18 13:36:08;;;;;;;;;;;;;;;;;;5072207;28;20440;-68
2022/11/18 13:38:33;;;;;;;;;;;11.60;99.90;;;;;;5071781;28;20018;-68
2022/11/18 13:41:12;;;;;;;;;;;11.70;99.90;;;;;;5072409;28;19999;-68
2022/11/18 13:43:37;;;;;;;;;;;;;;;;;;5072235;28;19943;-68
2022/11/18 13:46:05;;;;;;;;;;;11.70;99.90;;;;;;5076613;28;19913;-68
2022/11/18 13:48:31;;;;;;;;;;;;;;;;;;5071838;28;19924;-68
2022/11/18 13:50:58;;;;;;;;;;;11.80;99.90;;;;;;5071655;28;19913;-68
2022/11/18 13:53:23;;;;;;;;;;;11.80;99.90;;;;;;5068137;28;20376;-68
2022/11/18 13:55:50;;;;;;;;;;;11.70;99.90;;;;;;5062750;28;19950;-68
2022/11/18 13:58:16;;;;;;;;;;;;;;;;;;5053441;28;19908;-68
2022/11/18 14:00:42;;;;;;;;;;;;;;;;;;5072388;28;19915;-68
2022/11/18 14:03:21;;;;;;;;;;;11.60;99.90;;;;;;5071917;28;20041;-68
2022/11/18 14:05:52;;;;;;;;;;;11.60;99.90;;;;;;5071855;28;20003;-68
2022/11/18 14:08:22;;;;;;;;;;;11.40;99.90;;;;;;5071061;28;20011;-68
2022/11/18 14:10:47;;;;;;;;;;;11.30;99.90;;;;;;5071951;28;20306;-68
2022/11/18 14:13:29;;;;;;;;;;;11.30;99.90;;;;;;5071746;28;19969;-68
2022/11/18 14:15:55;;;;;;;;;;;11.30;99.90;;;;;;5082227;28;20032;-68
2022/11/18 14:18:32;;;;;;;;;;;11.30;99.90;;;;;;5071594;28;19917;-68
2022/11/18 14:20:58;;;;;;;;;;;;;;;;;;5070944;28;19913;-68
2022/11/18 14:23:34;;;;;;;;;;;11.40;99.90;;;;;;5086946;28;19917;-68
2022/11/18 14:26:00;;;;;;;;;;;;;;;;;;5071194;28;20525;-68
2022/11/18 14:28:26;;;;;;;;;;;;;;;;;;5071418;28;19916;-68
2022/11/18 14:30:57;;;;;;;;;;;11.40;99.90;;;;;;5071370;28;20380;-68
2022/11/18 14:33:23;;;;;;;;;;;;;;;;;;5071545;28;20379;-68
2022/11/18 14:35:55;;;;;;;;;;;11.40;99.90;;;;;;5070713;28;19908;-66
2022/11/18 14:38:34;;;;;;;;;;;11.40;99.90;;;;;;5070781;28;19935;-66
2022/11/18 14:41:04;;;;;;;;;;;11.40;99.90;;;;;;5071119;28;19909;-67
2022/11/18 14:43:31;;;;;;;;;;;11.40;99.90;;;;;;5070931;28;20365;-69
2022/11/18 14:46:04;;;;;;;;;;;11.30;99.90;;;;;;5077021;28;19912;-68
2022/11/18 14:48:31;;;;;;;;;;;11.30;99.90;;;;;;5072763;28;19964;-68
2022/11/18 14:50:56;;;;;;;;;;;;;;;;;;5071472;28;19943;-68
2022/11/18 14:53:22;;;;;;;;;;;11.10;99.90;;;;;;5068606;28;20318;-68
2022/11/18 14:55:48;;;;;;;;;;;;;;;;;;5043524;28;19913;-68
2022/11/18 14:58:14;;;;;;;;;;;10.90;99.90;;;;;;5070511;28;19916;-69
2022/11/18 15:00:40;;;;;;;;;;;;;;;;;;5070789;28;19974;-68
2022/11/18 15:03:05;;;;;;;;;;;10.70;99.90;;;;;;5070574;28;20233;-68
2022/11/18 15:05:30;;;;;;;;;;;10.60;99.90;;;;;;5070180;28;19956;-68
2022/11/18 15:07:56;;;;;;;;;;;10.50;99.90;;;;;;5069895;28;20269;-68
2022/11/18 15:10:21;;;;;;;;;;;10.30;99.90;;;;;;5070408;28;19991;-68
2022/11/18 15:12:47;;;;;;;;;;;10.20;99.90;;;;;;5070252;28;20054;-68
2022/11/18 15:15:12;;;;;;;;;;;10.10;99.90;;;;;;5070558;28;19909;-68
2022/11/18 15:17:38;;;;;;;;;;;;;;;;;;5075257;28;19923;-68
2022/11/18 15:20:05;;;;;;;;;;;;;;;;;;5068967;28;20061;-68
2022/11/18 15:22:31;;;;;;;;;;;;;;;;;;5069773;28;19913;-68
2022/11/18 15:24:57;;;;;;;;;;;9.60;99.90;;;;;;5072006;28;19928;-68
2022/11/18 15:27:22;;;;;;;;;;;9.60;99.90;;;;;;5080740;28;20049;-68
2022/11/18 15:29:49;;;;;;;;;;;9.60;99.90;;;;;;5070516;28;19927;-68
2022/11/18 15:32:15;;;;;;;;;;;;;;;;;;5063190;28;19916;-68